Time;durP1;ratioP1;P1;durP2;ratioP2;P2;SDS_P1;SDS_P2;PMS_P1;PMS_P2;Temp;Humidity;BMP_temperature;BMP_pressure;BME280_temperature;BME280_humidity;BME280_pressure;Samples;Min_cycle;Max_cycle;Signal;HPM_P1;HPM_P2
2023/03/25 08:22:00;;;;;;;3.13;0.97;;;;;;;10.09;100.00;95655.38;4929192;29;19925;-88
2023/03/25 08:24:28;;;;;;;2.80;0.70;;;;;;;10.83;100.00;95655.84;4921729;29;20055;-87
2023/03/25 08:26:55;;;;;;;2.43;0.90;;;;;;;9.64;100.00;95648.13;4916950;29;20028;-86
2023/03/25 08:29:37;;;;;;;1.63;0.30;;;;;;;9.11;100.00;95659.97;4932664;29;20702;-87
2023/03/25 08:32:06;;;;;;;3.73;0.60;;;;;;;9.39;100.00;95660.47;4920240;29;20067;-87
2023/03/25 08:34:38;;;;;;;4.57;0.50;;;;;;;10.70;100.00;95652.97;4934378;29;20038;-87
2023/03/25 08:37:08;;;;;;;2.83;0.50;;;;;;;11.24;100.00;95642.34;4919502;29;20073;-87
2023/03/25 08:39:38;;;;;;;3.83;0.87;;;;;;;11.59;100.00;95636.59;4926926;29;20032;-87
2023/03/25 08:42:12;;;;;;;1.70;0.70;;;;;;;11.49;100.00;95640.31;4929254;28;20098;-88
2023/03/25 08:45:27;;;;;;;2.60;0.90;;;;;;;12.17;100.00;95638.47;4936766;29;20429;-88
2023/03/25 08:47:53;;;;;;;3.53;1.10;;;;;;;11.88;100.00;95630.56;4921434;29;20071;-88
2023/03/25 08:50:20;;;;;;;3.47;0.80;;;;;;;11.92;100.00;95622.13;4935048;28;20028;-87
2023/03/25 08:52:47;;;;;;;3.20;0.60;;;;;;;12.25;100.00;95630.44;4921643;28;20112;-88
2023/03/25 08:55:16;;;;;;;5.43;0.80;;;;;;;12.61;100.00;95628.81;4929215;29;20102;-88
2023/03/25 08:57:42;;;;;;;2.03;0.60;;;;;;;12.09;100.00;95627.19;4924334;29;20027;-88
2023/03/25 09:00:15;;;;;;;4.70;0.80;;;;;;;11.40;100.00;95627.41;4935931;29;20087;-88
2023/03/25 09:02:42;;;;;;;2.03;0.47;;;;;;;11.22;100.00;95622.47;4914822;29;20092;-88
2023/03/25 09:05:12;;;;;;;2.00;0.80;;;;;;;11.02;100.00;95628.22;4924274;29;20055;-87
2023/03/25 09:07:42;;;;;;;4.33;0.77;;;;;;;11.96;100.00;95628.66;4925144;29;20040;-88
2023/03/25 09:10:08;;;;;;;5.27;0.87;;;;;;;12.06;100.00;95617.03;4916155;29;20028;-88
2023/03/25 09:12:34;;;;;;;4.33;0.90;;;;;;;11.73;100.00;95622.63;4923825;29;20095;-88
2023/03/25 09:14:59;;;;;;;4.57;1.10;;;;;;;11.99;100.00;95611.66;4917284;29;20031;-88
2023/03/25 09:17:26;;;;;;;4.83;0.70;;;;;;;12.21;100.00;95621.28;4919750;29;20057;-88
2023/03/25 09:19:51;;;;;;;4.67;1.10;;;;;;;11.65;100.00;95612.19;4933207;29;20589;-88
2023/03/25 09:22:17;;;;;;;4.50;0.80;;;;;;;11.76;100.00;95609.91;4912883;29;20090;-88
2023/03/25 09:24:44;;;;;;;2.43;0.70;;;;;;;11.29;100.00;95608.41;4904568;29;20491;-87
2023/03/25 09:27:22;;;;;;;3.03;0.93;;;;;;;10.64;100.00;95606.31;4908952;29;20546;-88
2023/03/25 09:29:48;;;;;;;2.63;0.63;;;;;;;10.19;100.00;95613.09;4925691;29;20420;-88
2023/03/25 09:32:13;;;;;;;1.40;0.43;;;;;;;10.22;100.00;95610.13;4931785;29;20032;-88
2023/03/25 09:34:44;;;;;;;1.83;0.43;;;;;;;9.55;100.00;95610.56;4929904;29;20036;-88
2023/03/25 09:37:12;;;;;;;1.87;1.07;;;;;;;9.33;100.00;95616.53;4926544;29;20032;-86
2023/03/25 09:39:42;;;;;;;18.73;9.87;;;;;;;9.35;100.00;95623.22;4913599;29;20024;-91
2023/03/25 09:42:37;;;;;;;11.70;7.07;;;;;;;9.24;100.00;95628.00;4926988;29;20518;-88
2023/03/25 09:45:29;;;;;;;4.33;1.00;;;;;;;8.38;100.00;95630.06;4918256;29;20854;-89
2023/03/25 09:48:02;;;;;;;2.20;0.40;;;;;;;8.33;100.00;95644.63;4905494;29;20039;-89
2023/03/25 09:50:31;;;;;;;2.55;0.88;;;;;;;8.34;100.00;95647.06;4918245;29;20549;-89
2023/03/25 09:53:11;;;;;;;2.03;0.70;;;;;;;8.21;100.00;95655.38;4917771;29;20043;-89
2023/03/25 09:55:42;;;;;;;3.00;0.93;;;;;;;7.93;100.00;95664.44;4905830;29;20097;-90
2023/03/25 09:58:20;;;;;;;2.17;0.80;;;;;;;8.11;100.00;95667.78;4913630;29;20087;-89
2023/03/25 10:01:08;;;;;;;3.83;1.20;;;;;;;7.96;100.00;95662.31;4915029;29;20039;-89
2023/03/25 10:03:57;;;;;;;1.90;0.80;;;;;;;7.86;100.00;95663.44;4911633;29;20111;-89
2023/03/25 10:07:01;;;;;;;2.13;0.83;;;;;;;9.31;100.00;95652.59;4927208;29;20072;-89
2023/03/25 10:09:51;;;;;;;3.85;0.60;;;;;;;9.55;100.00;95641.25;4926976;29;20122;-89
2023/03/25 10:12:41;;;;;;;1.70;0.90;;;;;;;9.98;100.00;95641.78;4921782;29;20067;-92
2023/03/25 10:15:27;;;;;;;2.80;1.27;;;;;;;10.25;100.00;95630.81;4916489;29;20036;-90
2023/03/25 10:18:19;;;;;;;1.63;0.73;;;;;;;10.83;100.00;95624.28;4941463;29;20545;-91
2023/03/25 10:21:07;;;;;;;1.20;0.70;;;;;;;10.12;100.00;95626.09;4919427;29;20055;-90
2023/03/25 10:23:39;;;;;;;2.17;0.50;;;;;;;10.10;100.00;95646.50;4922230;29;20510;-90
2023/03/25 10:26:14;;;;;;;2.70;0.97;;;;;;;9.84;100.00;95636.25;4924600;29;20114;-89
2023/03/25 10:28:48;;;;;;;3.53;1.20;;;;;;;9.38;100.00;95635.19;4929064;29;20605;-89
2023/03/25 10:31:26;;;;;;;2.53;0.53;;;;;;;9.29;100.00;95621.28;4928427;29;20044;-89
2023/03/25 10:34:00;;;;;;;2.47;0.40;;;;;;;8.96;100.00;95630.97;4931708;29;20032;-89
2023/03/25 10:36:59;;;;;;;2.80;0.70;;;;;;;10.14;100.00;95620.69;4956975;28;20044;-89
2023/03/25 10:39:38;;;;;;;2.27;0.30;;;;;;;11.28;100.00;95624.41;4924593;29;20070;-89
2023/03/25 10:42:19;;;;;;;1.33;0.50;;;;;;;12.41;100.00;95589.06;4925363;29;20043;-89
2023/03/25 10:44:51;;;;;;;2.33;0.60;;;;;;;11.29;100.00;95583.91;4929100;29;20036;-89
2023/03/25 10:47:25;;;;;;;1.10;0.70;;;;;;;12.06;100.00;95583.56;4933455;29;20072;-89
2023/03/25 10:49:54;;;;;;;2.60;1.17;;;;;;;12.94;100.00;95571.09;4906730;29;20040;-89
2023/03/25 10:52:29;;;;;;;0.93;0.40;;;;;;;13.13;100.00;95574.91;4925181;29;20095;-89
2023/03/25 10:54:57;;;;;;;1.73;0.53;;;;;;;13.44;100.00;95566.63;4929530;29;20071;-89
2023/03/25 10:57:28;;;;;;;2.20;0.30;;;;;;;12.42;100.00;95564.31;4918371;29;20055;-89
2023/03/25 11:00:15;;;;;;;0.90;0.40;;;;;;;12.14;100.00;95572.09;4907529;29;20395;-89
2023/03/25 11:02:42;;;;;;;2.43;0.40;;;;;;;11.16;100.00;95567.91;4926426;29;20043;-89
2023/03/25 11:05:18;;;;;;;0.73;0.30;;;;;;;10.70;100.00;95576.69;4925602;29;20031;-89
2023/03/25 11:08:00;;;;;;;1.23;0.30;;;;;;;12.01;100.00;95556.97;4929327;29;20032;-89
2023/03/25 11:10:33;;;;;;;2.67;1.07;;;;;;;11.07;100.00;95557.47;4917837;29;20126;-90
2023/03/25 11:13:06;;;;;;;1.08;0.50;;;;;;;11.08;100.00;95559.09;4920943;29;20090;-89
2023/03/25 11:15:37;;;;;;;0.93;0.30;;;;;;;11.13;100.00;95555.94;4932268;29;20070;-89
2023/03/25 11:18:21;;;;;;;1.20;0.30;;;;;;;11.46;100.00;95540.63;4922603;29;20029;-89
2023/03/25 11:20:47;;;;;;;;;;;;;;;11.87;100.00;95541.97;4931591;29;20308;-90
2023/03/25 11:23:33;;;;;;;4.60;0.50;;;;;;;11.37;100.00;95538.25;4937086;29;19966;-90
2023/03/25 11:26:20;;;;;;;1.20;0.40;;;;;;;10.93;100.00;95549.53;4926138;29;20068;-90
2023/03/25 11:29:08;;;;;;;1.50;0.40;;;;;;;10.70;100.00;95557.47;4924627;29;20042;-90
2023/03/25 11:31:36;;;;;;;2.53;0.77;;;;;;;10.69;100.00;95555.81;4907353;29;20040;-90
2023/03/25 11:34:11;;;;;;;1.17;0.50;;;;;;;10.21;100.00;95561.22;4926479;29;20038;-90
2023/03/25 11:36:39;;;;;;;1.73;0.67;;;;;;;10.59;100.00;95562.13;4924945;29;20039;-90
2023/03/25 11:39:24;;;;;;;2.53;0.60;;;;;;;10.93;100.00;95547.75;4926463;29;20090;-90
2023/03/25 11:41:51;;;;;;;5.07;0.50;;;;;;;10.47;100.00;95563.53;4908820;29;20099;-89
2023/03/25 11:44:22;;;;;;;2.27;1.00;;;;;;;10.61;100.00;95552.25;4917596;29;20043;-89
2023/03/25 11:46:53;;;;;;;6.00;0.83;;;;;;;10.03;100.00;95592.19;4912554;29;20612;-89
2023/03/25 11:49:22;;;;;;;0.30;0.20;;;;;;;9.82;100.00;95588.31;4931290;29;20042;-89
2023/03/25 11:52:00;;;;;;;0.87;0.37;;;;;;;9.76;100.00;95582.91;4912309;29;20036;-89
2023/03/25 11:54:29;;;;;;;1.57;0.43;;;;;;;9.64;100.00;95583.31;4906667;29;20058;-90
2023/03/25 11:57:01;;;;;;;4.90;1.20;;;;;;;10.36;100.00;95595.47;4916095;29;20067;-86
2023/03/25 11:59:56;;;;;;;10.50;2.00;;;;;;;10.05;100.00;95601.53;4930287;29;20044;-85
2023/03/25 12:02:30;;;;;;;2.30;0.80;;;;;;;9.20;100.00;95591.63;4916246;29;20613;-84
2023/03/25 12:05:20;;;;;;;1.57;0.60;;;;;;;10.85;100.00;95592.50;4920101;29;20040;-90
2023/03/25 12:08:05;;;;;;;3.73;1.17;;;;;;;11.40;100.00;95575.59;4918083;29;20094;-91
2023/03/25 12:11:06;;;;;;;7.07;2.00;;;;;;;12.43;100.00;95566.75;4918940;29;20650;-87
2023/03/25 12:13:46;;;;;;;2.23;1.00;;;;;;;11.61;100.00;95563.53;4932964;29;20036;-90
2023/03/25 12:16:21;;;;;;;0.70;0.37;;;;;;;11.27;100.00;95575.41;4930211;29;20538;-90
2023/03/25 12:19:19;;;;;;;2.20;0.53;;;;;;;11.31;100.00;95574.84;4944269;29;20051;-90
2023/03/25 12:22:00;;;;;;;2.33;0.57;;;;;;;12.24;100.00;95562.91;4948790;28;20048;-90
2023/03/25 12:25:09;;;;;;;1.63;0.50;;;;;;;12.25;100.00;95564.53;4934007;29;20062;-90
2023/03/25 12:27:51;;;;;;;2.30;0.73;;;;;;;11.49;100.00;95557.88;4909497;29;20040;-92
2023/03/25 12:30:54;;;;;;;1.37;0.30;;;;;;;11.11;100.00;95557.13;4920019;29;20042;-90
2023/03/25 12:34:11;;;;;;;1.90;0.50;;;;;;;10.98;100.00;95561.16;4924629;29;20032;-89
2023/03/25 12:36:58;;;;;;;2.90;0.87;;;;;;;12.31;100.00;95543.69;4881011;29;20043;-90
2023/03/25 12:39:51;;;;;;;1.60;0.43;;;;;;;11.97;100.00;95553.88;4908852;29;20040;-90
2023/03/25 12:42:23;;;;;;;4.10;0.50;;;;;;;12.73;100.00;95545.53;4927866;29;20129;-90
2023/03/25 12:45:03;;;;;;;1.13;0.40;;;;;;;12.99;100.00;95544.94;4910920;29;20039;-90
2023/03/25 12:47:41;;;;;;;2.37;0.40;;;;;;;12.34;100.00;95538.91;4914009;29;20035;-88
2023/03/25 12:50:30;;;;;;;1.30;0.33;;;;;;;13.51;100.00;95527.03;4927336;29;20040;-90
2023/03/25 12:53:22;;;;;;;5.23;0.60;;;;;;;13.05;100.00;95533.63;4928085;29;20031;-90
2023/03/25 12:56:08;;;;;;;2.57;0.50;;;;;;;12.22;100.00;95535.91;4940962;29;20100;-90
2023/03/25 12:58:41;;;;;;;0.90;0.50;;;;;;;11.52;100.00;95532.00;4929786;29;20118;-90
2023/03/25 13:01:36;;;;;;;2.38;0.80;;;;;;;11.62;100.00;95552.78;4915118;29;20031;-90
2023/03/25 13:04:41;;;;;;;1.57;0.50;;;;;;;12.47;100.00;95546.09;4919216;29;20036;-90
2023/03/25 13:07:20;;;;;;;2.00;0.60;;;;;;;12.77;100.00;95546.78;4917810;29;20037;-91
2023/03/25 13:10:14;;;;;;;1.13;0.33;;;;;;;12.84;100.00;95541.56;4910135;29;20066;-91
2023/03/25 13:12:50;;;;;;;;;;;;;;;12.27;100.00;95536.19;4919277;29;20451;-91
2023/03/25 13:15:30;;;;;;;2.73;0.70;;;;;;;11.86;100.00;95533.25;4924638;29;19915;-91
2023/03/25 13:18:17;;;;;;;3.97;1.27;;;;;;;11.93;100.00;95539.44;4923787;29;20036;-90
2023/03/25 13:21:07;;;;;;;3.17;0.60;;;;;;;11.08;100.00;95534.59;4934868;29;20035;-89
2023/03/25 13:23:35;;;;;;;0.93;0.50;;;;;;;10.75;100.00;95528.81;4926229;29;20044;-91
2023/03/25 13:26:08;;;;;;;2.67;0.80;;;;;;;10.61;100.00;95543.56;4914738;29;20023;-90
2023/03/25 13:29:02;;;;;;;1.55;0.63;;;;;;;10.24;100.00;95557.44;4922900;29;20071;-89
2023/03/25 13:31:41;;;;;;;2.40;0.40;;;;;;;9.55;100.00;95568.56;4940810;29;20046;-90
2023/03/25 13:34:48;;;;;;;2.60;0.70;;;;;;;9.08;100.00;95585.06;4929607;29;20123;-88
2023/03/25 13:37:37;;;;;;;4.07;1.30;;;;;;;9.65;100.00;95587.56;4936226;29;20035;-90
2023/03/25 13:40:26;;;;;;;3.50;1.10;;;;;;;10.42;100.00;95579.00;4932157;29;20127;-90
2023/03/25 13:43:13;;;;;;;2.60;0.90;;;;;;;10.81;100.00;95580.72;4929521;29;20039;-90
2023/03/25 13:46:17;;;;;;;2.33;0.70;;;;;;;11.47;100.00;95571.22;4912899;29;20071;-90
2023/03/25 13:48:53;;;;;;;1.00;0.70;;;;;;;11.66;100.00;95569.84;4928576;29;20038;-90
2023/03/25 13:51:20;;;;;;;0.70;0.30;;;;;;;11.19;100.00;95567.56;4886113;29;21978;-91
2023/03/25 13:54:07;;;;;;;0.83;0.30;;;;;;;11.49;100.00;95566.59;4865687;29;20027;-90
2023/03/25 13:56:58;;;;;;;0.60;0.30;;;;;;;11.07;100.00;95570.63;4838792;29;20044;-91
2023/03/25 13:59:36;;;;;;;0.37;0.30;;;;;;;11.53;100.00;95575.75;4830055;29;20398;-91
2023/03/25 14:02:26;;;;;;;1.37;0.37;;;;;;;11.02;100.00;95580.03;4847960;29;20043;-91
2023/03/25 14:05:23;;;;;;;2.90;0.60;;;;;;;10.90;100.00;95589.34;4858216;28;20059;-91
2023/03/25 14:08:17;;;;;;;7.13;3.33;;;;;;;10.74;100.00;95587.69;4866228;28;20039;-91
2023/03/25 14:11:02;;;;;;;;;;;;;;;10.79;100.00;95573.00;4851591;29;20045;-90
2023/03/25 14:13:37;;;;;;;3.47;0.93;;;;;;;11.36;100.00;95578.75;4848006;29;20288;-90
2023/03/25 14:16:10;;;;;;;4.73;0.40;;;;;;;11.21;100.00;95570.84;4828282;29;20518;-91
2023/03/25 14:18:48;;;;;;;3.17;0.60;;;;;;;11.21;100.00;95560.31;4849723;29;20027;-90
2023/03/25 14:21:20;;;;;;;2.43;0.60;;;;;;;11.31;100.00;95574.84;4814856;29;20110;-90
2023/03/25 14:23:48;;;;;;;1.90;0.80;;;;;;;11.17;100.00;95574.84;4796067;29;20039;-91
2023/03/25 14:26:17;;;;;;;3.17;1.17;;;;;;;11.66;100.00;95566.41;4816845;29;20050;-91
2023/03/25 14:28:46;;;;;;;1.37;0.53;;;;;;;11.57;100.00;95563.06;4804864;29;20046;-92
2023/03/25 14:31:24;;;;;;;3.00;0.90;;;;;;;11.63;100.00;95558.88;4788130;29;21114;-91
2023/03/25 14:34:03;;;;;;;4.47;1.83;;;;;;;11.73;100.00;95565.50;4791978;29;20126;-92
2023/03/25 14:36:41;;;;;;;3.83;0.60;;;;;;;11.91;100.00;95559.06;4779480;29;20390;-91
2023/03/25 14:42:28;;;;;;;2.10;0.50;;;;;;;11.65;100.00;95551.63;4803061;29;20094;-91
2023/03/25 14:45:31;;;;;;;3.17;0.77;;;;;;;11.37;100.00;95560.16;4788168;29;20846;-91
2023/03/25 14:47:58;;;;;;;4.05;0.60;;;;;;;11.01;100.00;95560.00;4777351;29;20035;-90
2023/03/25 14:50:23;;;;;;;3.07;0.60;;;;;;;10.83;100.00;95560.31;4783898;29;20036;-91
2023/03/25 14:52:53;;;;;;;3.27;0.47;;;;;;;10.79;100.00;95566.91;4871451;29;20049;-90
2023/03/25 14:55:25;;;;;;;3.40;0.50;;;;;;;10.57;100.00;95566.75;4889015;29;20040;-92
2023/03/25 14:58:17;;;;;;;3.17;0.40;;;;;;;10.36;100.00;95587.59;4898786;29;20071;-90
2023/03/25 15:00:57;;;;;;;1.60;0.50;;;;;;;9.63;100.00;95571.16;4915648;29;20028;-90
2023/03/25 15:03:35;;;;;;;1.83;0.57;;;;;;;9.36;100.00;95608.31;4925691;29;20036;-89
2023/03/25 15:06:32;;;;;;;3.40;0.60;;;;;;;8.85;100.00;95618.19;4924159;29;20095;-90
2023/03/25 15:09:08;;;;;;;2.47;0.70;;;;;;;8.38;100.00;95643.16;4926037;29;20056;-90
2023/03/25 15:12:04;;;;;;;1.27;0.30;;;;;;;8.73;100.00;95621.13;4909266;29;20055;-90
2023/03/25 15:14:40;;;;;;;1.57;0.47;;;;;;;8.88;100.00;95621.28;4924257;29;20040;-90
2023/03/25 15:17:41;;;;;;;4.80;1.63;;;;;;;9.26;100.00;95613.75;4915705;29;20028;-89
2023/03/25 15:22:42;;;;;;;1.87;0.47;;;;;;;9.33;100.00;95611.28;4924563;29;20032;-91
2023/03/25 15:25:18;;;;;;;1.63;0.60;;;;;;;9.46;100.00;95608.97;4913552;29;20044;-90
2023/03/25 15:27:56;;;;;;;0.80;0.40;;;;;;;9.51;100.00;95605.81;4913855;29;20061;-91
2023/03/25 15:30:56;;;;;;;0.97;0.60;;;;;;;9.45;100.00;95597.63;4919237;29;20494;-90
2023/03/25 15:33:53;;;;;;;5.57;1.00;;;;;;;9.58;100.00;95593.66;4914562;29;20051;-90
2023/03/25 15:36:38;;;;;;;2.73;0.70;;;;;;;9.70;100.00;95592.31;4946654;28;20031;-89
2023/03/25 15:39:30;;;;;;;2.37;0.60;;;;;;;9.88;100.00;95594.69;4934027;29;20035;-88
2023/03/25 15:42:15;;;;;;;6.23;1.83;;;;;;;9.82;100.00;95587.50;4920513;29;20039;-89
2023/03/25 15:45:19;;;;;;;6.77;0.80;;;;;;;9.93;100.00;95589.78;4915425;29;21644;-89
2023/03/25 15:48:26;;;;;;;2.65;0.55;;;;;;;10.03;100.00;95600.88;4923807;29;20074;-88
2023/03/25 15:51:21;;;;;;;2.37;0.67;;;;;;;10.06;100.00;95604.97;4920155;29;20063;-88
2023/03/25 15:53:57;;;;;;;1.93;0.60;;;;;;;10.20;100.00;95588.50;4914402;29;20162;-88
2023/03/25 15:56:28;;;;;;;5.53;1.20;;;;;;;10.18;100.00;95587.00;4911803;29;20048;-88
2023/03/25 15:59:02;;;;;;;2.93;0.93;;;;;;;10.15;100.00;95591.63;4927244;29;20471;-90
2023/03/25 16:01:51;;;;;;;40.07;17.97;;;;;;;10.42;100.00;95591.34;4918183;29;20073;-92
2023/03/25 16:04:56;;;;;;;7.83;2.83;;;;;;;10.67;100.00;95589.38;4933898;29;20043;-89
2023/03/25 16:07:30;;;;;;;4.40;1.43;;;;;;;10.45;100.00;95585.75;4927080;29;20044;-89
2023/03/25 16:10:31;;;;;;;5.07;1.40;;;;;;;10.56;100.00;95578.28;4911119;29;20630;-89
2023/03/25 16:13:02;;;;;;;6.43;1.60;;;;;;;10.54;100.00;95582.88;4917363;29;20036;-89
2023/03/25 16:15:31;;;;;;;3.27;0.90;;;;;;;10.47;100.00;95589.84;4915021;29;20100;-89
2023/03/25 16:18:01;;;;;;;3.37;1.30;;;;;;;10.46;100.00;95580.31;4923651;29;20034;-89
2023/03/25 16:20:30;;;;;;;2.43;0.80;;;;;;;10.42;100.00;95576.38;4914556;29;20040;-89
2023/03/25 16:23:02;;;;;;;2.90;0.90;;;;;;;10.46;100.00;95571.59;4915618;29;20150;-89
2023/03/25 16:25:34;;;;;;;4.27;1.10;;;;;;;10.48;100.00;95578.31;4923789;29;20131;-89
2023/03/25 16:28:07;;;;;;;3.43;0.83;;;;;;;10.42;100.00;95571.13;4917164;29;20068;-89
2023/03/25 16:30:48;;;;;;;2.97;0.70;;;;;;;10.35;100.00;95564.94;4918109;29;20533;-89
2023/03/25 16:33:28;;;;;;;6.30;1.10;;;;;;;10.57;100.00;95565.94;4926852;29;20043;-89
2023/03/25 16:36:14;;;;;;;2.47;0.80;;;;;;;10.41;100.00;95564.25;4920280;29;20034;-88
2023/03/25 16:38:49;;;;;;;4.53;1.30;;;;;;;10.35;100.00;95571.00;4914254;29;20100;-89
2023/03/25 16:41:20;;;;;;;2.87;0.40;;;;;;;10.34;100.00;95572.00;4930155;29;20400;-88
2023/03/25 16:43:46;;;;;;;3.87;0.80;;;;;;;10.33;100.00;95569.56;4911890;29;20047;-88
2023/03/25 16:46:15;;;;;;;1.50;0.40;;;;;;;10.24;100.00;95567.94;4926297;29;20743;-89
2023/03/25 16:48:52;;;;;;;4.23;1.20;;;;;;;10.14;100.00;95573.41;4932090;29;20032;-88
2023/03/25 16:51:27;;;;;;;4.00;1.00;;;;;;;10.02;100.00;95583.47;4910369;29;20028;-89
2023/03/25 16:54:57;;;;;;;2.67;0.67;;;;;;;9.90;100.00;95590.09;4919548;29;20130;-89
2023/03/25 16:57:40;;;;;;;3.37;0.80;;;;;;;9.87;100.00;95582.56;4869203;29;20041;-88
2023/03/25 17:00:19;;;;;;;5.03;1.30;;;;;;;9.62;100.00;95582.66;4887667;29;20040;-81
2023/03/25 17:02:50;;;;;;;4.87;1.33;;;;;;;9.64;100.00;95593.00;4925310;29;20474;-81
2023/03/25 17:05:28;;;;;;;5.47;1.50;;;;;;;9.51;100.00;95587.44;4912103;29;20119;-80
2023/03/25 17:08:09;;;;;;;5.70;1.93;;;;;;;9.70;100.00;95592.31;4928822;29;20126;-84
2023/03/25 17:10:58;;;;;;;3.43;1.07;;;;;;;9.46;100.00;95593.22;4933255;29;20032;-81
2023/03/25 17:13:29;;;;;;;4.83;1.00;;;;;;;9.33;100.00;95606.84;4929860;29;20031;-80
2023/03/25 17:15:56;;;;;;;3.47;0.80;;;;;;;9.25;100.00;95600.78;4911966;29;20043;-81
2023/03/25 17:18:27;;;;;;;4.33;1.17;;;;;;;9.09;100.00;95612.13;4929289;29;20066;-81
2023/03/25 17:21:02;;;;;;;3.63;0.80;;;;;;;8.97;100.00;95606.38;4915215;29;20834;-81
2023/03/25 17:23:36;;;;;;;4.03;0.73;;;;;;;9.18;100.00;95609.31;4934375;29;20043;-81
2023/03/25 17:26:18;;;;;;;3.27;1.20;;;;;;;8.89;100.00;95630.00;4933965;29;20085;-82
2023/03/25 17:29:05;;;;;;;4.57;0.80;;;;;;;8.82;100.00;95629.00;4921645;29;20064;-82
2023/03/25 17:31:37;;;;;;;5.10;1.10;;;;;;;9.17;100.00;95623.41;4926651;28;20045;-82
2023/03/25 17:34:06;;;;;;;1.63;0.50;;;;;;;8.95;100.00;95622.31;4917709;29;20032;-84
2023/03/25 17:36:35;;;;;;;3.33;0.60;;;;;;;8.77;100.00;95626.88;4923596;29;20103;-82
2023/03/25 17:39:04;;;;;;;2.87;1.60;;;;;;;8.67;100.00;95626.19;4923190;29;20023;-82
2023/03/25 17:41:36;;;;;;;9.83;2.67;;;;;;;8.58;100.00;95637.66;4912763;29;20036;-82
2023/03/25 17:44:03;;;;;;;3.27;1.37;;;;;;;8.45;100.00;95649.44;4918440;29;20103;-84
2023/03/25 17:46:34;;;;;;;4.47;1.00;;;;;;;8.47;100.00;95638.78;4945730;29;20036;-83
2023/03/25 17:49:00;;;;;;;4.43;1.57;;;;;;;8.43;100.00;95640.09;4912116;29;20046;-83
2023/03/25 17:51:29;;;;;;;3.90;1.00;;;;;;;8.32;100.00;95643.00;4926143;29;20757;-82
2023/03/25 17:53:55;;;;;;;7.07;2.57;;;;;;;8.43;100.00;95640.09;4917356;29;20395;-84
2023/03/25 17:56:27;;;;;;;5.20;1.37;;;;;;;8.22;100.00;95636.06;4911855;29;20194;-83
2023/03/25 17:59:28;;;;;;;7.33;1.20;;;;;;;8.12;100.00;95631.97;4934871;29;20032;-83
2023/03/25 18:02:15;;;;;;;7.80;1.20;;;;;;;8.11;100.00;95630.28;4860305;29;20669;-82
2023/03/25 18:04:41;;;;;;;4.63;1.30;;;;;;;8.09;100.00;95629.66;4938882;29;20044;-85
2023/03/25 18:07:20;;;;;;;3.67;1.07;;;;;;;8.05;100.00;95634.38;4926704;29;20032;-86
2023/03/25 18:09:53;;;;;;;2.90;0.90;;;;;;;8.09;100.00;95627.84;4924103;29;20032;-88
2023/03/25 18:12:19;;;;;;;6.22;1.88;;;;;;;8.12;100.00;95635.41;4955189;29;20098;-84
2023/03/25 18:14:49;;;;;;;3.97;1.43;;;;;;;8.05;100.00;95621.28;4940581;29;20112;-86
2023/03/25 18:17:24;;;;;;;2.97;1.07;;;;;;;8.00;100.00;95624.38;4925949;29;20031;-87
2023/03/25 18:20:17;;;;;;;9.87;3.87;;;;;;;7.87;100.00;95629.22;4920835;29;20036;-84
2023/03/25 18:22:55;;;;;;;7.50;2.70;;;;;;;7.92;100.00;95642.69;4927921;29;20036;-85
2023/03/25 18:25:23;;;;;;;5.70;2.50;;;;;;;7.77;100.00;95650.28;4907159;29;20120;-86
2023/03/25 18:27:55;;;;;;;5.63;2.07;;;;;;;7.91;100.00;95645.44;4927511;29;20083;-88
2023/03/25 18:30:21;;;;;;;5.97;1.50;;;;;;;7.83;100.00;95650.66;4924769;29;20134;-83
2023/03/25 18:32:47;;;;;;;5.37;1.47;;;;;;;7.83;100.00;95648.84;4923660;29;20071;-86
2023/03/25 18:35:12;;;;;;;3.03;1.20;;;;;;;7.79;100.00;95647.53;4924968;29;20062;-87
2023/03/25 18:38:47;;;;;;;;;;;;;;;;;;;;;
2023/03/25 18:41:17;;;;;;;6.70;2.53;;;;;;;7.67;100.00;95665.28;4940055;29;20036;-82
2023/03/25 18:43:43;;;;;;;5.00;2.03;;;;;;;7.62;100.00;95664.94;4938075;29;20083;-80
2023/03/25 18:46:13;;;;;;;5.23;2.20;;;;;;;7.68;100.00;95672.19;4919397;29;20055;-83
2023/03/25 18:48:40;;;;;;;4.17;1.50;;;;;;;7.65;100.00;95672.47;4917057;29;20036;-83
2023/03/25 18:51:22;;;;;;;;;;;;;;;;;;;;;
2023/03/25 18:53:50;;;;;;;4.77;1.23;;;;;;;7.68;100.00;95677.41;4924016;29;20032;-83
2023/03/25 18:56:18;;;;;;;3.80;1.20;;;;;;;7.66;100.00;95678.53;4922875;29;20406;-83
2023/03/25 18:58:47;;;;;;;3.83;1.10;;;;;;;7.72;100.00;95668.25;4928250;29;20035;-83
2023/03/25 19:01:20;;;;;;;3.80;1.00;;;;;;;7.77;100.00;95675.63;4908215;29;20050;-83
2023/03/25 19:04:22;;;;;;;4.37;0.90;;;;;;;7.79;100.00;95663.22;4923107;29;20168;-82
2023/03/25 19:07:14;;;;;;;4.40;0.97;;;;;;;7.93;100.00;95659.19;4903152;29;20044;-92
2023/03/25 19:20:37;;;;;;;4.77;1.03;;;;;;;8.18;100.00;95681.06;4886046;29;20139;-83
2023/03/25 19:23:07;;;;;;;5.63;0.90;;;;;;;8.22;100.00;95685.84;4891091;29;20036;-83
2023/03/25 19:25:50;;;;;;;2.37;0.97;;;;;;;8.26;100.00;95675.88;4887227;29;20135;-83
2023/03/25 19:28:18;;;;;;;5.67;1.57;;;;;;;8.24;100.00;95689.09;4920722;29;20048;-83
2023/03/25 19:30:45;;;;;;;7.40;2.17;;;;;;;8.26;100.00;95695.03;4921933;29;20470;-83
2023/03/25 19:33:16;;;;;;;5.63;1.37;;;;;;;8.35;100.00;95685.41;4923479;29;20139;-88
2023/03/25 19:35:53;;;;;;;5.27;1.23;;;;;;;8.32;100.00;95698.00;4911967;29;20080;-89
2023/03/25 19:38:21;;;;;;;2.90;0.80;;;;;;;8.33;100.00;95687.34;4913580;29;20020;-83
2023/03/25 19:41:14;;;;;;;6.80;1.33;;;;;;;8.28;100.00;95697.47;4924151;29;20071;-85
2023/03/25 19:43:42;;;;;;;5.78;1.08;;;;;;;8.22;100.00;95685.84;4913123;29;20046;-82
2023/03/25 19:46:09;;;;;;;5.27;0.93;;;;;;;8.30;100.00;95686.84;4912895;29;20036;-82
2023/03/25 19:48:35;;;;;;;3.27;0.93;;;;;;;8.30;100.00;95677.19;4911575;29;20031;-82
2023/03/25 19:51:04;;;;;;;5.03;1.77;;;;;;;8.25;100.00;95676.84;4911138;29;20059;-82
2023/03/25 19:53:33;;;;;;;2.20;0.90;;;;;;;8.21;100.00;95684.19;4909091;29;20126;-82
2023/03/25 19:56:16;;;;;;;3.63;0.90;;;;;;;8.19;100.00;95672.25;4924734;29;20032;-82
2023/03/25 19:58:42;;;;;;;2.17;0.70;;;;;;;8.19;100.00;95670.44;4921692;29;20083;-82
2023/03/25 20:01:08;;;;;;;3.80;0.80;;;;;;;8.23;100.00;95682.25;4925378;29;20036;-82
2023/03/25 20:03:37;;;;;;;1.73;0.90;;;;;;;8.10;100.00;95688.91;4919832;29;20040;-82
2023/03/25 20:06:27;;;;;;;4.53;0.80;;;;;;;8.11;100.00;95678.25;4920858;29;20032;-82
2023/03/25 20:08:53;;;;;;;5.50;1.67;;;;;;;8.06;100.00;95690.19;4913232;29;20126;-82
2023/03/25 20:11:20;;;;;;;3.87;1.00;;;;;;;8.13;100.00;95683.34;4914624;29;20051;-83
2023/03/25 20:13:52;;;;;;;5.53;1.77;;;;;;;8.25;100.00;95696.00;4913887;29;20107;-83
2023/03/25 20:16:26;;;;;;;6.80;2.03;;;;;;;8.11;100.00;95690.53;4918759;29;20040;-82
2023/03/25 20:19:04;;;;;;;15.60;6.33;;;;;;;8.13;100.00;95699.06;4933587;29;20106;-83
2023/03/25 20:21:30;;;;;;;5.33;1.90;;;;;;;8.17;100.00;95713.47;4932425;29;20706;-83
2023/03/25 20:23:55;;;;;;;3.90;0.97;;;;;;;7.92;100.00;95713.38;4916641;29;20035;-82
2023/03/25 20:26:25;;;;;;;4.67;1.13;;;;;;;7.70;100.00;95738.25;4924737;29;20130;-82
2023/03/25 20:28:53;;;;;;;3.43;0.90;;;;;;;7.56;100.00;95738.81;4931795;29;20047;-82
2023/03/25 20:31:23;;;;;;;4.73;0.77;;;;;;;7.40;100.00;95731.66;4924816;29;20228;-82
2023/03/25 20:33:54;;;;;;;3.23;0.97;;;;;;;7.35;100.00;95738.34;4932850;29;20044;-82
2023/03/25 20:36:31;;;;;;;4.13;0.80;;;;;;;7.31;100.00;95730.78;4914784;29;20036;-82
2023/03/25 20:39:10;;;;;;;5.50;1.07;;;;;;;7.31;100.00;95728.19;4932361;29;20398;-82
2023/03/25 20:41:45;;;;;;;2.93;0.80;;;;;;;7.28;100.00;95728.47;4925239;29;20040;-81
2023/03/25 20:44:10;;;;;;;4.73;1.07;;;;;;;7.29;100.00;95722.25;4923990;29;20039;-82
2023/03/25 20:46:36;;;;;;;4.20;0.80;;;;;;;7.33;100.00;95722.78;4928978;29;20043;-82
2023/03/25 20:49:04;;;;;;;3.23;0.80;;;;;;;7.25;100.00;95712.28;4906060;29;20466;-82
2023/03/25 20:51:30;;;;;;;2.87;0.93;;;;;;;7.18;100.00;95709.44;4918397;29;20067;-82
2023/03/25 20:54:10;;;;;;;2.23;0.70;;;;;;;7.29;100.00;95714.41;4921701;29;20122;-82
2023/03/25 20:56:37;;;;;;;3.27;0.50;;;;;;;7.22;100.00;95710.78;4916336;29;20041;-82
2023/03/25 20:59:04;;;;;;;3.87;0.90;;;;;;;7.18;100.00;95704.22;4933221;29;20534;-82